Urb Veve Calzada, Puerto Rico
Current Conditions -  °F | °C
As of 12:17 PM on Saturday 25 Oct 2014 (Local Time) from TJNR Reporting Station
Scattered Clouds Scattered Clouds  
Wind Chill: 90°   Ceiling: Unl
Heat Index: 100°   Visibility: 10mi
Dew Point: 75°   Wind: 13mph
Humidity: 61%   Direction: 200°SSW
Pressure: 29.94"   Gusts: NA
Location:  18.3304°N, 65.6573°W
Report Text: TJNR 251617Z AUTO 20011KT 10SM SCT026 SCT075 32/24 A2994 RMK AO2 T03220239 $
Loading
Personal Weather Stations






























Interactive Weather Map
Tropical Storm Tracking
New forecast layout! Learn more

10-Day Weather Forecast

Advertisements
Track Severe Weather on mobile